Time;durP1;ratioP1;P1;durP2;ratioP2;P2;SDS_P1;SDS_P2;PMS_P1;PMS_P2;Temp;Humidity;BMP_temperature;BMP_pressure;BME280_temperature;BME280_humidity;BME280_pressure;Samples;Min_cycle;Max_cycle;Signal;HPM_P1;HPM_P2
2022/12/17 13:07:33;;;;;;;;;59.50;42.25;;;;;3.35;100.00;101981.72;5046783;28;45879;-85
2022/12/17 13:09:58;;;;;;;;;60.50;43.00;;;;;2.96;100.00;101923.59;5069266;28;45264;-86
2022/12/17 13:12:44;;;;;;;;;51.75;41.25;;;;;3.23;100.00;101977.31;5057216;28;45613;-85
2022/12/17 13:15:30;;;;;;;;;64.00;42.25;;;;;3.05;100.00;101959.91;5058170;28;45800;-85
2022/12/17 13:18:36;;;;;;;;;46.25;36.50;;;;;3.05;100.00;101968.91;5050658;28;45677;-86
2022/12/17 13:21:06;;;;;;;;;54.50;42.25;;;;;2.72;100.00;101945.50;5059552;28;45454;-80
2022/12/17 13:24:00;;;;;;;;;55.50;42.50;;;;;2.63;100.00;101969.66;5058418;28;45406;-85
2022/12/17 13:27:05;;;;;;;;;;;;;;;;;;;;;
2022/12/17 13:29:39;;;;;;;;;56.75;41.25;;;;;2.27;100.00;101947.28;5052886;28;74571;-83
2022/12/17 13:33:15;;;;;;;;;57.25;41.25;;;;;2.17;100.00;101940.94;5053486;28;45433;-83
2022/12/17 13:36:16;;;;;;;;;49.25;40.00;;;;;2.36;100.00;101969.22;5001578;28;45900;-83
2022/12/17 13:39:06;;;;;;;;;64.75;44.25;;;;;2.28;100.00;101965.28;5052273;28;45738;-82
2022/12/17 13:41:38;;;;;;;;;57.00;43.25;;;;;2.10;100.00;101955.94;5057099;28;46310;-81
2022/12/17 13:44:43;;;;;;;;;55.50;43.00;;;;;1.91;100.00;101927.63;5049431;28;45754;-82
2022/12/17 13:47:27;;;;;;;;;47.00;33.75;;;;;2.10;100.00;101962.22;5053375;28;45986;-82
2022/12/17 13:49:56;;;;;;;;;62.50;45.25;;;;;1.70;100.00;101891.50;5048378;28;46212;-80
2022/12/17 13:52:27;;;;;;;;;42.75;29.75;;;;;2.08;100.00;101961.47;5044623;28;45879;-80
2022/12/17 13:54:53;;;;;;;;;57.25;43.75;;;;;2.05;100.00;101947.31;5041913;28;45355;-79
2022/12/17 13:57:20;;;;;;;;;54.00;43.00;;;;;2.04;100.00;101935.66;5040753;28;45715;-80
2022/12/17 13:59:51;;;;;;;;;58.75;42.50;;;;;2.01;100.00;101929.63;5050415;28;45434;-80
2022/12/17 14:02:23;;;;;;;;;54.00;39.00;;;;;2.22;100.00;101948.69;5041374;28;45525;-80
2022/12/17 14:04:53;;;;;;;;;55.00;42.75;;;;;2.24;100.00;101963.78;5047283;28;45681;-79
2022/12/17 14:07:19;;;;;;;;;51.75;39.25;;;;;2.24;100.00;101955.66;5046765;28;45946;-80
2022/12/17 14:09:47;;;;;;;;;58.00;41.75;;;;;2.30;100.00;101962.44;5049245;28;46030;-79
2022/12/17 14:12:20;;;;;;;;;48.75;41.00;;;;;2.24;100.00;101950.25;5045577;28;45515;-81
2022/12/17 14:14:50;;;;;;;;;51.25;39.50;;;;;2.34;100.00;101968.47;5053743;28;45777;-81
2022/12/17 14:17:34;;;;;;;;;44.75;32.75;;;;;2.19;100.00;101960.59;5051307;28;45881;-79
2022/12/17 14:20:12;;;;;;;;;52.75;40.75;;;;;2.28;100.00;101976.09;5046510;28;46645;-79
2022/12/17 14:22:44;;;;;;;;;55.25;42.50;;;;;2.19;100.00;101976.84;5045544;28;45733;-80
2022/12/17 14:25:15;;;;;;;;;53.25;40.75;;;;;2.05;100.00;101956.31;5048083;28;45700;-79
2022/12/17 14:27:52;;;;;;;;;60.00;45.25;;;;;2.28;100.00;101981.50;5045047;28;45437;-79
2022/12/17 14:30:30;;;;;;;;;58.00;42.00;;;;;2.19;100.00;101976.00;5045826;28;45954;-81
2022/12/17 14:32:57;;;;;;;;;58.50;44.25;;;;;2.15;100.00;101963.69;5043537;28;45500;-80
2022/12/17 14:35:24;;;;;;;;;64.50;46.25;;;;;2.08;100.00;101964.19;5052345;28;45711;-80
2022/12/17 14:37:50;;;;;;;;;56.50;43.25;;;;;2.12;100.00;101984.59;5050246;28;45382;-80
2022/12/17 14:40:15;;;;;;;;;44.75;32.50;;;;;1.84;100.00;101945.38;5049716;28;46001;-80
2022/12/17 14:42:41;;;;;;;;;55.25;42.25;;;;;1.87;100.00;101953.25;5047312;28;45966;-80
2022/12/17 14:45:12;;;;;;;;;55.25;38.00;;;;;2.10;100.00;101988.41;5054792;28;45999;-81
2022/12/17 14:47:39;;;;;;;;;62.75;40.00;;;;;2.08;100.00;101984.94;5053274;28;45552;-81
2022/12/17 14:50:16;;;;;;;;;52.50;44.25;;;;;2.11;100.00;101971.19;5052664;28;45651;-80
2022/12/17 14:52:48;;;;;;;;;57.00;39.75;;;;;2.18;100.00;101963.44;5043380;28;47143;-81
2022/12/17 14:55:35;;;;;;;;;50.75;37.50;;;;;2.16;100.00;101957.31;5049536;28;46126;-81
2022/12/17 14:58:46;;;;;;;;;50.75;35.75;;;;;2.15;100.00;101963.69;5048049;28;45501;-81
2022/12/17 15:01:12;;;;;;;;;55.00;43.00;;;;;1.98;100.00;101936.13;5026387;28;45598;-82
2022/12/17 15:03:47;;;;;;;;;44.25;37.00;;;;;2.18;100.00;101969.69;5048814;28;47140;-82
2022/12/17 15:06:17;;;;;;;;;61.25;42.50;;;;;1.97;100.00;101938.97;5044458;27;44931;-81
2022/12/17 15:08:48;;;;;;;;;37.50;29.50;;;;;2.05;100.00;101947.31;5046888;28;45454;-82
2022/12/17 15:11:20;;;;;;;;;56.00;40.75;;;;;2.31;100.00;101952.50;5044616;28;46478;-82
2022/12/17 15:13:46;;;;;;;;;49.00;36.75;;;;;2.00;100.00;101888.16;5052791;28;47673;-81
2022/12/17 15:16:32;;;;;;;;;54.50;41.50;;;;;2.22;100.00;101933.28;5050941;28;46499;-80
2022/12/17 15:18:59;;;;;;;;;54.75;41.50;;;;;2.11;100.00;101930.59;5048629;28;45615;-80
2022/12/17 15:21:25;;;;;;;;;56.50;42.75;;;;;2.29;100.00;101958.88;5045854;28;46271;-81
2022/12/17 15:23:51;;;;;;;;;56.75;44.50;;;;;2.17;100.00;101949.06;5052595;28;46959;-83
2022/12/17 15:26:18;;;;;;;;;40.50;35.00;;;;;2.12;100.00;101954.81;5045880;28;45631;-81
2022/12/17 15:28:44;;;;;;;;;58.50;44.25;;;;;2.03;100.00;101963.69;5067379;28;45801;-82
2022/12/17 15:31:12;;;;;;;;;62.00;45.50;;;;;1.78;100.00;101924.19;5039631;28;45800;-80
2022/12/17 15:33:38;;;;;;;;;59.00;46.50;;;;;1.93;100.00;101966.28;5044251;28;46494;-82
2022/12/17 15:36:04;;;;;;;;;62.75;45.75;;;;;1.77;100.00;101949.53;5047494;28;45897;-82
2022/12/17 15:38:30;;;;;;;;;58.00;44.00;;;;;1.85;100.00;101974.13;5046991;28;45419;-82
2022/12/17 15:40:59;;;;;;;;;55.75;43.00;;;;;1.67;100.00;101964.75;5044419;28;45768;-81
2022/12/17 15:43:24;;;;;;;;;55.25;41.25;;;;;1.64;100.00;101981.22;5045851;28;46020;-81
2022/12/17 15:45:50;;;;;;;;;50.25;40.50;;;;;1.63;100.00;101991.16;5045734;28;46963;-81
2022/12/17 15:48:22;;;;;;;;;64.00;43.75;;;;;1.47;100.00;101971.72;5052413;28;45496;-81
2022/12/17 15:50:48;;;;;;;;;63.75;46.25;;;;;1.28;100.00;101954.22;5089891;27;45962;-82
2022/12/17 15:53:14;;;;;;;;;57.50;43.25;;;;;1.48;100.00;101992.38;5062654;28;46128;-81
2022/12/17 15:55:40;;;;;;;;;56.25;45.25;;;;;1.43;100.00;101995.44;5054421;28;45484;-81
2022/12/17 15:58:07;;;;;;;;;57.25;44.50;;;;;1.07;100.00;101948.63;5058434;28;45360;-80
2022/12/17 16:00:33;;;;;;;;;59.25;45.00;;;;;1.14;100.00;101979.59;5043528;28;45767;-81
2022/12/17 16:02:59;;;;;;;;;61.25;47.25;;;;;1.25;100.00;102011.22;5058482;28;47278;-81
2022/12/17 16:05:25;;;;;;;;;59.50;47.00;;;;;1.12;100.00;101997.75;5040377;28;45538;-81
2022/12/17 16:07:51;;;;;;;;;59.00;43.00;;;;;0.85;100.00;101955.69;5043469;28;45489;-81
2022/12/17 16:10:17;;;;;;;;;56.25;44.25;;;;;0.98;100.00;101990.69;5054020;28;45485;-82
2022/12/17 16:12:43;;;;;;;;;59.25;47.25;;;;;0.87;100.00;101980.72;5054661;28;46455;-82
2022/12/17 16:15:10;;;;;;;;;55.25;43.25;;;;;0.90;100.00;102003.94;5051806;28;47152;-81
2022/12/17 16:17:36;;;;;;;;;59.25;44.00;;;;;0.86;100.00;102011.38;5054557;28;45656;-82
2022/12/17 16:20:04;;;;;;;;;61.75;45.75;;;;;0.83;100.00;102010.75;5053121;28;45909;-81
2022/12/17 16:22:29;;;;;;;;;66.75;49.25;;;;;0.68;100.00;101988.47;5050638;28;47799;-81
2022/12/17 16:24:55;;;;;;;;;60.75;48.00;;;;;0.75;100.00;101997.84;5048966;28;45447;-81
2022/12/17 16:27:21;;;;;;;;;58.50;42.50;;;;;0.62;100.00;101973.56;5064502;28;45440;-81
2022/12/17 16:29:47;;;;;;;;;59.00;48.25;;;;;0.60;100.00;101986.34;5047121;28;46681;-79
2022/12/17 16:32:13;;;;;;;;;67.75;48.25;;;;;0.57;100.00;101993.78;5047027;28;45524;-81
2022/12/17 16:34:43;;;;;;;;;56.50;41.25;;;;;0.58;100.00;102003.59;5038842;28;45863;-81
2022/12/17 16:37:11;;;;;;;;;56.75;45.25;;;;;0.50;100.00;101996.06;5041124;28;45789;-80
2022/12/17 16:39:37;;;;;;;;;65.50;44.00;;;;;0.46;100.00;102006.22;5052849;28;46558;-82
2022/12/17 16:42:03;;;;;;;;;60.50;48.50;;;;;0.38;100.00;101997.84;5058546;28;46633;-82
2022/12/17 16:44:29;;;;;;;;;60.00;39.50;;;;;0.43;100.00;102014.53;5050425;28;45466;-81
2022/12/17 16:47:11;;;;;;;;;;;;;;;;;;;;;
2022/12/17 16:49:37;;;;;;;;;65.75;47.25;;;;;0.39;100.00;101991.47;5052310;28;73370;-81
2022/12/17 16:52:03;;;;;;;;;59.75;44.75;;;;;0.21;100.00;101960.41;5060532;28;47897;-83
2022/12/17 16:54:31;;;;;;;;;61.25;46.50;;;;;0.34;100.00;101985.53;5061061;28;45721;-83
2022/12/17 16:57:06;;;;;;;;;57.50;44.25;;;;;0.31;100.00;101985.75;5061883;28;45437;-83
2022/12/17 16:59:32;;;;;;;;;71.50;50.25;;;;;0.17;100.00;101984.91;5058083;28;45504;-82
2022/12/17 17:02:01;;;;;;;;;45.75;35.00;;;;;0.06;100.00;101974.06;5087988;27;47081;-83
2022/12/17 17:04:27;;;;;;;;;58.50;43.50;;;;;0.14;100.00;102001.31;5057721;28;45101;-85
2022/12/17 17:06:55;;;;;;;;;60.75;49.75;;;;;-0.19;100.00;101970.38;5072975;28;45534;-83
2022/12/17 17:09:23;;;;;;;;;56.00;42.00;;;;;-0.13;100.00;101973.63;5046862;27;47815;-84
2022/12/17 17:12:44;;;;;;;;;52.25;42.25;;;;;-0.03;100.00;101985.47;5068483;28;46013;-85
2022/12/17 17:15:13;;;;;;;;;61.00;45.50;;;;;-0.38;100.00;101934.91;5054850;28;45455;-84
2022/12/17 17:17:50;;;;;;;;;67.50;48.75;;;;;-0.14;100.00;101993.47;5055014;28;45749;-84
2022/12/17 17:20:55;;;;;;;;;64.50;50.75;;;;;-0.42;100.00;101961.22;5054523;28;46197;-84
2022/12/17 17:24:08;;;;;;;;;67.25;45.75;;;;;-0.23;100.00;101998.53;4986574;28;46803;-83
2022/12/17 17:26:49;;;;;;;;;62.75;42.50;;;;;-0.25;100.00;101988.84;4992054;28;45837;-84
2022/12/17 17:30:03;;;;;;;;;;;;;;;;;;;;;
2022/12/17 17:33:01;;;;;;;;;49.50;38.50;;;;;-0.44;100.00;101984.72;5000936;28;74886;-83
2022/12/17 17:35:42;;;;;;;;;66.00;49.00;;;;;-0.26;100.00;102014.06;5027347;28;45398;-83
2022/12/17 17:38:32;;;;;;;;;61.25;46.50;;;;;-0.34;100.00;101993.03;5051095;28;45521;-85
2022/12/17 17:41:03;;;;;;;;;69.00;48.50;;;;;-0.66;100.00;101946.75;5027571;28;45845;-81
2022/12/17 17:43:29;;;;;;;;;59.00;42.75;;;;;-0.22;100.00;102015.59;5019145;28;45490;-83
2022/12/17 17:46:37;;;;;;;;;68.25;48.25;;;;;-0.19;100.00;102021.59;5022797;28;46245;-84
2022/12/17 17:49:17;;;;;;;;;61.25;48.75;;;;;-0.63;100.00;101943.84;5014428;28;45794;-85
2022/12/17 17:51:50;;;;;;;;;62.75;46.00;;;;;-0.20;100.00;102003.69;5018780;28;45047;-84
2022/12/17 17:54:53;;;;;;;;;64.00;50.25;;;;;-0.20;100.00;102008.25;5019067;28;46036;-85
2022/12/17 17:57:20;;;;;;;;;56.50;41.75;;;;;-0.17;100.00;101996.38;5025350;28;45089;-85
2022/12/17 17:59:48;;;;;;;;;65.25;48.25;;;;;-0.14;100.00;102012.34;5024437;28;45411;-83
2022/12/17 18:02:14;;;;;;;;;60.25;48.25;;;;;-0.61;100.00;101926.63;5035358;28;45391;-85
2022/12/17 18:04:44;;;;;;;;;65.75;48.75;;;;;-0.09;100.00;102011.06;5029187;28;45203;-84
2022/12/17 18:07:10;;;;;;;;;65.50;51.00;;;;;-0.29;100.00;101961.22;5029478;28;46658;-84
2022/12/17 18:09:36;;;;;;;;;59.50;48.25;;;;;-0.34;100.00;101947.22;5026686;28;45466;-84
2022/12/17 18:18:00;;;;;;;;;64.00;49.50;;;;;-0.30;100.00;101943.34;5033304;28;45544;-86
2022/12/17 18:20:36;;;;;;;;;62.75;46.75;;;;;-0.19;100.00;101966.84;5010885;28;45554;-84
2022/12/17 18:23:16;;;;;;;;;63.25;42.25;;;;;-0.44;100.00;101936.22;5011462;28;45548;-84
2022/12/17 18:26:05;;;;;;;;;63.50;49.25;;;;;-0.34;100.00;101952.59;5022463;28;45309;-86
2022/12/17 18:28:32;;;;;;;;;58.00;42.00;;;;;-0.20;100.00;101970.50;5018451;28;45766;-80
2022/12/17 18:31:34;;;;;;;;;62.50;42.25;;;;;-0.04;100.00;101994.56;5010995;28;45485;-84
2022/12/17 18:34:25;;;;;;;;;50.00;41.75;;;;;-0.28;100.00;101956.72;5020105;28;45719;-86
2022/12/17 18:36:52;;;;;;;;;63.50;46.00;;;;;-0.10;100.00;102009.31;5026663;28;45505;-86
2022/12/17 18:45:09;;;;;;;;;68.25;53.75;;;;;-0.55;100.00;101977.38;5018715;28;45359;-83
2022/12/17 18:47:43;;;;;;;;;115.75;86.75;;;;;-0.56;100.00;101974.78;5015614;28;45811;-80
2022/12/17 18:50:09;;;;;;;;;67.75;52.50;;;;;-0.31;100.00;102033.25;5008997;28;45976;-82
2022/12/17 18:52:35;;;;;;;;;70.25;50.75;;;;;-0.49;100.00;102019.22;5014689;28;45604;-83
2022/12/17 18:55:04;;;;;;;;;65.50;49.00;;;;;-0.82;100.00;101960.44;5027588;28;45588;-83
2022/12/17 18:57:36;;;;;;;;;68.00;50.25;;;;;-0.43;100.00;102031.41;5008925;28;45491;-83
2022/12/17 19:00:02;;;;;;;;;65.00;46.00;;;;;-0.50;100.00;102019.31;5009258;28;47055;-82
2022/12/17 19:02:28;;;;;;;;;65.75;49.50;;;;;-0.41;100.00;102043.78;5005260;28;45843;-83
2022/12/17 19:04:54;;;;;;;;;61.75;44.75;;;;;-0.69;100.00;101993.63;5006921;28;45515;-83
2022/12/17 19:07:22;;;;;;;;;66.75;51.00;;;;;-0.48;100.00;102037.13;5014553;28;46217;-83
2022/12/17 19:09:49;;;;;;;;;68.25;52.50;;;;;-0.66;100.00;102006.03;5011681;28;47201;-82
2022/12/17 19:12:14;;;;;;;;;72.50;53.00;;;;;-0.64;100.00;102021.13;5008934;28;45995;-82
2022/12/17 19:14:41;;;;;;;;;66.75;51.00;;;;;-0.58;100.00;102036.88;5011450;28;45478;-84
2022/12/17 19:17:07;;;;;;;;;70.75;53.50;;;;;-0.59;100.00;102032.44;5017485;28;45540;-82
2022/12/17 19:19:32;;;;;;;;;70.50;54.25;;;;;-0.60;100.00;102033.44;5012180;28;47091;-83
2022/12/17 19:22:05;;;;;;;;;76.25;55.50;;;;;-0.58;100.00;102036.88;5018515;28;46012;-80
2022/12/17 19:24:38;;;;;;;;;74.50;54.75;;;;;-1.04;100.00;101964.56;5060215;28;45350;-83
2022/12/17 19:27:06;;;;;;;;;73.50;52.00;;;;;-0.83;100.00;101996.41;5055956;28;44765;-83
2022/12/17 19:29:36;;;;;;;;;69.00;53.25;;;;;-0.84;100.00;101997.34;5059032;27;46427;-83
2022/12/17 19:32:06;;;;;;;;;70.00;54.25;;;;;-0.68;100.00;102024.13;5076978;28;45694;-83
2022/12/17 19:34:40;;;;;;;;;65.00;50.50;;;;;-0.90;100.00;101986.06;5056605;28;45526;-83
2022/12/17 19:37:05;;;;;;;;;68.50;52.50;;;;;-0.66;100.00;102028.47;5067891;27;46112;-82
2022/12/17 19:46:20;;;;;;;;;74.75;54.00;;;;;-1.06;100.00;101990.75;5045545;28;45798;-84
2022/12/17 19:48:53;;;;;;;;;74.75;54.50;;;;;-0.98;100.00;102009.91;5051415;28;45431;-84
2022/12/17 19:51:21;;;;;;;;;73.00;53.00;;;;;-1.05;100.00;102000.50;5044436;28;47235;-81
2022/12/17 19:53:47;;;;;;;;;70.50;54.75;;;;;-0.92;100.00;102039.13;5060237;28;45430;-82
2022/12/17 19:56:18;;;;;;;;;70.50;52.50;;;;;-0.95;100.00;102035.78;5057542;28;45409;-84
2022/12/17 19:58:45;;;;;;;;;74.75;55.00;;;;;-0.99;100.00;102037.84;5050374;28;45648;-82
2022/12/17 20:01:16;;;;;;;;;61.75;49.25;;;;;-1.02;100.00;102046.09;5050728;28;45690;-82
2022/12/17 20:03:46;;;;;;;;;61.00;49.00;;;;;-1.04;100.00;102056.09;5057888;28;45631;-83
2022/12/17 20:06:13;;;;;;;;;69.00;51.25;;;;;-1.04;100.00;102066.88;5047062;28;45744;-82
2022/12/17 20:08:40;;;;;;;;;67.00;54.75;;;;;-1.04;100.00;102061.47;5053367;28;46043;-83
2022/12/17 20:13:57;;;;;;;;;69.00;52.50;;;;;-1.00;100.00;102057.63;5062141;28;45414;-83
2022/12/17 20:16:22;;;;;;;;;74.75;57.75;;;;;-1.00;100.00;102070.22;5052442;28;45184;-83
2022/12/17 20:18:49;;;;;;;;;66.25;52.50;;;;;-0.99;100.00;102067.44;5054017;28;45960;-83
2022/12/17 20:21:15;;;;;;;;;71.75;53.75;;;;;-0.93;100.00;102067.03;5058656;28;46323;-83
2022/12/17 20:23:40;;;;;;;;;74.25;57.25;;;;;-0.98;100.00;102055.69;5055565;28;45881;-83
2022/12/17 20:26:09;;;;;;;;;66.50;52.25;;;;;-0.86;100.00;102080.09;5047423;28;45662;-82
2022/12/17 20:28:36;;;;;;;;;65.75;52.00;;;;;-0.91;100.00;102070.50;5054136;28;45643;-82
2022/12/17 20:31:02;;;;;;;;;79.75;58.25;;;;;-1.05;100.00;102051.66;5050877;28;48519;-82
2022/12/17 20:33:29;;;;;;;;;64.50;47.75;;;;;-1.03;100.00;102052.44;5051024;28;45602;-83
2022/12/17 20:35:55;;;;;;;;;67.50;45.00;;;;;-0.98;100.00;102062.91;5058013;28;45503;-82
2022/12/17 20:38:21;;;;;;;;;73.25;53.50;;;;;-1.16;100.00;102038.91;5052038;28;45888;-82
2022/12/17 20:40:47;;;;;;;;;81.50;61.75;;;;;-1.12;100.00;102045.00;5069930;28;47305;-82
2022/12/17 20:43:13;;;;;;;;;66.50;55.00;;;;;-1.33;100.00;102020.31;5051838;28;45673;-82
2022/12/17 20:45:47;;;;;;;;;73.25;51.00;;;;;-1.10;100.00;102065.44;5052634;28;46141;-82
2022/12/17 20:48:15;;;;;;;;;69.25;55.50;;;;;-1.10;100.00;102081.59;5054182;28;46978;-83
2022/12/17 20:50:41;;;;;;;;;74.25;53.75;;;;;-1.28;100.00;102043.28;5060174;28;46144;-81
2022/12/17 20:53:07;;;;;;;;;79.50;59.50;;;;;-1.14;100.00;102073.81;5044554;28;45508;-82
2022/12/17 20:55:33;;;;;;;;;73.25;55.00;;;;;-1.27;100.00;102071.06;5038912;28;45583;-82
2022/12/17 20:57:59;;;;;;;;;54.00;40.50;;;;;-1.44;100.00;102035.34;5044393;28;45482;-82
2022/12/17 21:00:25;;;;;;;;;70.50;54.50;;;;;-1.18;100.00;102085.75;5053321;28;46868;-83
2022/12/17 21:02:50;;;;;;;;;63.25;51.75;;;;;-1.28;100.00;102056.72;5078708;27;45464;-83
2022/12/17 21:05:16;;;;;;;;;67.50;54.00;;;;;-1.32;100.00;102049.84;5049024;28;45886;-83
2022/12/17 21:07:43;;;;;;;;;69.25;54.75;;;;;-1.33;100.00;102061.56;5048344;28;45615;-82
2022/12/17 21:10:14;;;;;;;;;66.50;48.50;;;;;-1.15;100.00;102085.56;5062620;28;47132;-83
2022/12/17 21:15:23;;;;;;;;;75.75;56.75;;;;;-1.16;100.00;102073.06;5056829;28;45484;-84
2022/12/17 21:17:49;;;;;;;;;64.75;52.25;;;;;-1.32;100.00;102047.16;5058524;28;45829;-82
2022/12/17 21:20:17;;;;;;;;;97.00;70.75;;;;;-1.05;100.00;102089.38;5047797;28;46556;-83
2022/12/17 21:22:43;;;;;;;;;74.50;56.25;;;;;-1.23;100.00;102052.88;5054054;28;45418;-82
2022/12/17 21:25:08;;;;;;;;;72.75;55.50;;;;;-1.00;100.00;102067.53;5043087;28;45784;-82
2022/12/17 21:27:34;;;;;;;;;68.50;53.50;;;;;-1.12;100.00;102039.59;5049280;28;45438;-82
2022/12/17 21:30:00;;;;;;;;;72.75;52.25;;;;;-0.97;100.00;102070.03;5047989;28;45367;-81
2022/12/17 21:32:27;;;;;;;;;75.00;58.00;;;;;-1.13;100.00;102032.47;5043010;28;45438;-81
2022/12/17 21:34:52;;;;;;;;;60.25;48.25;;;;;-1.09;100.00;102042.09;5054482;28;45691;-82
2022/12/17 21:37:18;;;;;;;;;78.00;56.00;;;;;-0.94;100.00;102065.31;5038062;28;45897;-81
2022/12/17 21:39:46;;;;;;;;;71.00;53.25;;;;;-1.15;100.00;102027.19;5039502;28;45450;-82
2022/12/17 21:44:56;;;;;;;;;71.50;57.75;;;;;-1.22;100.00;102008.88;5045347;28;45474;-82
2022/12/17 21:47:24;;;;;;;;;61.75;52.25;;;;;-1.05;100.00;102043.59;5064057;28;47244;-81
2022/12/17 21:49:50;;;;;;;;;75.00;56.50;;;;;-1.12;100.00;102032.38;5050462;28;45729;-81
2022/12/17 21:52:15;;;;;;;;;75.25;58.50;;;;;-0.96;100.00;102043.00;5046352;28;45810;-82
2022/12/17 21:54:41;;;;;;;;;70.50;54.75;;;;;-0.96;100.00;102043.00;5046085;28;45449;-81
2022/12/17 21:57:06;;;;;;;;;70.75;51.50;;;;;-1.04;100.00;102023.78;5038783;28;45347;-81
2022/12/17 21:59:32;;;;;;;;;74.75;56.25;;;;;-0.98;100.00;102038.69;5040857;28;46021;-81
2022/12/17 22:01:58;;;;;;;;;76.75;58.00;;;;;-0.96;100.00;102034.94;5037315;28;45695;-81
2022/12/17 22:04:24;;;;;;;;;85.50;62.00;;;;;-0.94;100.00;102030.28;5043645;28;45579;-81
2022/12/17 22:06:49;;;;;;;;;77.25;57.50;;;;;-0.96;100.00;102021.47;5067107;28;46249;-82
2022/12/17 22:22:47;;;;;;;;;61.00;47.25;;;;;-0.84;100.00;102029.69;5071853;22;44893;-80
2022/12/17 22:25:13;;;;;;;;;68.25;52.00;;;;;-0.85;100.00;102038.72;5055251;28;45404;-80
2022/12/17 22:27:39;;;;;;;;;70.00;51.00;;;;;-0.89;100.00;102025.47;5054958;27;45750;-80
2022/12/17 22:32:58;;;;;;;;;62.25;49.00;;;;;-0.83;100.00;102029.56;5055494;28;45460;-80
2022/12/17 22:35:25;;;;;;;;;66.75;52.25;;;;;-0.91;100.00;102024.72;5057214;28;45853;-81
2022/12/17 22:37:51;;;;;;;;;65.25;49.75;;;;;-0.85;100.00;102038.72;5057034;28;45744;-81
2022/12/17 22:40:21;;;;;;;;;61.00;45.50;;;;;-0.91;100.00;102019.31;5050736;28;46275;-80
2022/12/17 22:45:30;;;;;;;;;63.25;49.00;;;;;-0.93;100.00;102015.88;5056236;28;45352;-79
2022/12/17 22:47:56;;;;;;;;;62.75;48.75;;;;;-1.04;100.00;102018.41;5066355;28;45763;-80
2022/12/17 22:50:21;;;;;;;;;68.75;48.75;;;;;-1.07;100.00;102024.00;5071949;27;47321;-79
2022/12/17 22:52:47;;;;;;;;;63.50;43.25;;;;;-1.10;100.00;102024.19;5056358;28;45578;-79
2022/12/17 22:55:13;;;;;;;;;71.50;52.25;;;;;-1.18;100.00;102000.50;5063570;28;45679;-78
2022/12/17 22:57:39;;;;;;;;;60.50;47.00;;;;;-1.13;100.00;102009.09;5055882;28;45352;-79
2022/12/17 23:00:11;;;;;;;;;68.00;51.50;;;;;-1.24;100.00;102006.28;5043917;28;45426;-80
2022/12/17 23:02:37;;;;;;;;;41.75;33.00;;;;;-1.28;100.00;102015.50;5053719;28;46138;-79
2022/12/17 23:05:02;;;;;;;;;64.00;50.00;;;;;-1.32;100.00;101993.31;5057497;28;45618;-80
2022/12/17 23:07:28;;;;;;;;;62.50;50.00;;;;;-1.32;100.00;101996.03;5066245;28;45689;-80
2022/12/17 23:09:53;;;;;;;;;67.25;49.75;;;;;-1.48;100.00;101968.38;5047152;28;45848;-80
2022/12/17 23:15:03;;;;;;;;;64.25;48.25;;;;;-1.29;100.00;101998.50;5054358;28;47285;-79
2022/12/17 23:17:29;;;;;;;;;63.25;46.50;;;;;-1.27;100.00;101987.66;5055384;28;45612;-80
2022/12/17 23:19:54;;;;;;;;;66.75;52.50;;;;;-1.24;100.00;101984.75;5065412;28;46445;-80
2022/12/17 23:22:20;;;;;;;;;69.75;51.50;;;;;-1.31;100.00;101986.97;5055303;28;46552;-79
2022/12/17 23:24:48;;;;;;;;;64.75;48.50;;;;;-1.34;100.00;101978.25;5048728;28;45341;-80
2022/12/17 23:27:14;;;;;;;;;61.25;51.00;;;;;-1.18;100.00;101994.22;5056738;28;45444;-79
2022/12/17 23:29:39;;;;;;;;;66.50;49.75;;;;;-1.18;100.00;101983.44;5055560;28;45944;-81
2022/12/17 23:32:04;;;;;;;;;46.75;39.75;;;;;-1.20;100.00;101991.63;5056941;28;46668;-80
2022/12/17 23:34:30;;;;;;;;;66.50;50.25;;;;;-1.23;100.00;102007.13;5055546;28;45396;-81
2022/12/17 23:36:55;;;;;;;;;66.25;50.25;;;;;-1.30;100.00;101994.09;5053905;28;45918;-81
2022/12/17 23:39:21;;;;;;;;;65.25;48.25;;;;;-1.27;100.00;101996.56;5072463;27;47239;-81
2022/12/17 23:41:46;;;;;;;;;61.50;49.25;;;;;-1.30;100.00;101999.47;5056868;28;45504;-81
2022/12/17 23:44:11;;;;;;;;;56.75;45.25;;;;;-1.33;100.00;101996.97;5056017;28;45453;-80
2022/12/17 23:46:37;;;;;;;;;64.75;47.75;;;;;-1.36;100.00;102002.56;5035348;28;45755;-80
2022/12/17 23:49:04;;;;;;;;;62.25;47.50;;;;;-1.44;100.00;101995.00;5053218;28;45697;-80
2022/12/17 23:51:31;;;;;;;;;64.50;48.75;;;;;-1.41;100.00;102001.97;5054700;28;45783;-80
2022/12/17 23:53:58;;;;;;;;;64.00;43.00;;;;;-1.46;100.00;102001.44;5054118;28;45632;-80
2022/12/17 23:56:26;;;;;;;;;60.25;47.25;;;;;-1.54;100.00;101988.47;5059280;28;45699;-81
2022/12/17 23:58:57;;;;;;;;;64.00;49.00;;;;;-1.48;100.00;102009.59;5042095;28;45403;-80
